sensor_id;sensor_type;location;lat;lon;timestamp;pressure;altitude;pressure_sealevel;temperature;humidity
55490;BME280;44029;52.956;4.772;2022-11-12T00:01:07;103275.47;;;13.06;100.00
55490;BME280;44029;52.956;4.772;2022-11-12T00:03:33;103282.25;;;13.04;100.00
55490;BME280;44029;52.956;4.772;2022-11-12T00:05:58;103279.31;;;13.12;100.00
55490;BME280;44029;52.956;4.772;2022-11-12T00:08:24;103277.84;;;13.23;100.00
55490;BME280;44029;52.956;4.772;2022-11-12T00:10:49;103267.69;;;13.17;100.00
55490;BME280;44029;52.956;4.772;2022-11-12T00:13:15;103262.53;;;12.93;100.00
55490;BME280;44029;52.956;4.772;2022-11-12T00:15:41;103262.53;;;12.93;100.00
55490;BME280;44029;52.956;4.772;2022-11-12T00:18:06;103264.19;;;12.88;100.00
55490;BME280;44029;52.956;4.772;2022-11-12T00:20:32;103251.75;;;12.92;100.00
55490;BME280;44029;52.956;4.772;2022-11-12T00:22:57;103251.31;;;12.88;100.00
55490;BME280;44029;52.956;4.772;2022-11-12T00:25:23;103246.63;;;12.82;100.00
55490;BME280;44029;52.956;4.772;2022-11-12T00:27:48;103251.69;;;12.79;100.00
55490;BME280;44029;52.956;4.772;2022-11-12T00:30:14;103251.91;;;12.77;100.00
55490;BME280;44029;52.956;4.772;2022-11-12T00:32:39;103257.91;;;12.94;100.00
55490;BME280;44029;52.956;4.772;2022-11-12T00:35:06;103256.00;;;13.01;100.00
55490;BME280;44029;52.956;4.772;2022-11-12T00:37:31;103249.19;;;12.90;100.00
55490;BME280;44029;52.956;4.772;2022-11-12T00:39:56;103248.34;;;12.90;100.00
55490;BME280;44029;52.956;4.772;2022-11-12T00:42:22;103242.44;;;12.86;100.00
55490;BME280;44029;52.956;4.772;2022-11-12T00:44:47;103253.63;;;12.85;100.00
55490;BME280;44029;52.956;4.772;2022-11-12T00:47:14;103267.00;;;12.94;100.00
55490;BME280;44029;52.956;4.772;2022-11-12T00:49:40;103260.00;;;12.99;100.00
55490;BME280;44029;52.956;4.772;2022-11-12T00:52:05;103259.59;;;13.08;100.00
55490;BME280;44029;52.956;4.772;2022-11-12T00:54:30;103256.84;;;13.08;100.00
55490;BME280;44029;52.956;4.772;2022-11-12T00:56:56;103252.41;;;13.01;100.00
55490;BME280;44029;52.956;4.772;2022-11-12T00:59:21;103257.06;;;13.00;100.00
55490;BME280;44029;52.956;4.772;2022-11-12T01:01:46;103252.03;;;13.10;100.00
55490;BME280;44029;52.956;4.772;2022-11-12T01:04:12;103256.88;;;13.15;100.00
55490;BME280;44029;52.956;4.772;2022-11-12T01:06:39;103247.97;;;13.06;100.00
55490;BME280;44029;52.956;4.772;2022-11-12T01:09:05;103246.69;;;13.02;100.00
55490;BME280;44029;52.956;4.772;2022-11-12T01:11:31;103237.38;;;13.03;100.00
55490;BME280;44029;52.956;4.772;2022-11-12T01:14:00;103234.00;;;13.08;100.00
55490;BME280;44029;52.956;4.772;2022-11-12T01:16:28;103239.06;;;13.04;100.00
55490;BME280;44029;52.956;4.772;2022-11-12T01:18:56;103246.06;;;13.00;100.00
55490;BME280;44029;52.956;4.772;2022-11-12T01:21:27;103251.31;;;12.95;100.00
55490;BME280;44029;52.956;4.772;2022-11-12T01:23:53;103252.56;;;12.86;100.00
55490;BME280;44029;52.956;4.772;2022-11-12T01:26:20;103254.72;;;12.90;100.00
55490;BME280;44029;52.956;4.772;2022-11-12T01:28:46;103249.19;;;12.90;100.00
55490;BME280;44029;52.956;4.772;2022-11-12T01:31:14;103244.59;;;13.11;100.00
55490;BME280;44029;52.956;4.772;2022-11-12T01:33:41;103252.63;;;13.06;100.00
55490;BME280;44029;52.956;4.772;2022-11-12T01:36:07;103264.28;;;13.21;100.00
55490;BME280;44029;52.956;4.772;2022-11-12T01:38:34;103261.38;;;13.29;100.00
55490;BME280;44029;52.956;4.772;2022-11-12T01:40:59;103257.28;;;13.12;100.00
55490;BME280;44029;52.956;4.772;2022-11-12T01:43:25;103248.50;;;12.75;100.00
55490;BME280;44029;52.956;4.772;2022-11-12T01:45:51;103248.03;;;12.65;100.00
55490;BME280;44029;52.956;4.772;2022-11-12T01:48:33;103243.88;;;12.75;100.00
55490;BME280;44029;52.956;4.772;2022-11-12T01:50:59;103247.41;;;12.69;100.00
55490;BME280;44029;52.956;4.772;2022-11-12T01:53:27;103242.94;;;12.62;100.00
55490;BME280;44029;52.956;4.772;2022-11-12T01:55:57;103233.66;;;12.69;100.00
55490;BME280;44029;52.956;4.772;2022-11-12T01:58:26;103232.81;;;12.69;100.00
55490;BME280;44029;52.956;4.772;2022-11-12T02:00:53;103236.81;;;12.60;100.00
55490;BME280;44029;52.956;4.772;2022-11-12T02:03:21;103244.81;;;12.54;100.00
55490;BME280;44029;52.956;4.772;2022-11-12T02:05:51;103233.19;;;12.52;100.00
55490;BME280;44029;52.956;4.772;2022-11-12T02:08:17;103244.16;;;12.52;100.00
55490;BME280;44029;52.956;4.772;2022-11-12T02:10:43;103235.97;;;12.66;100.00
55490;BME280;44029;52.956;4.772;2022-11-12T02:13:09;103233.66;;;12.63;100.00
55490;BME280;44029;52.956;4.772;2022-11-12T02:15:54;103236.44;;;12.76;100.00
55490;BME280;44029;52.956;4.772;2022-11-12T02:18:19;103233.03;;;12.67;100.00
55490;BME280;44029;52.956;4.772;2022-11-12T02:20:55;103233.06;;;12.74;100.00
55490;BME280;44029;52.956;4.772;2022-11-12T02:23:21;103237.28;;;12.70;100.00
55490;BME280;44029;52.956;4.772;2022-11-12T02:25:46;103230.75;;;12.77;100.00
55490;BME280;44029;52.956;4.772;2022-11-12T02:28:12;103227.13;;;12.70;100.00
55490;BME280;44029;52.956;4.772;2022-11-12T02:30:42;103225.88;;;12.80;100.00
55490;BME280;44029;52.956;4.772;2022-11-12T02:33:08;103221.84;;;12.75;100.00
55490;BME280;44029;52.956;4.772;2022-11-12T02:35:33;103228.84;;;12.78;100.00
55490;BME280;44029;52.956;4.772;2022-11-12T02:37:58;103223.94;;;12.67;100.00
55490;BME280;44029;52.956;4.772;2022-11-12T02:40:24;103222.22;;;12.66;100.00
55490;BME280;44029;52.956;4.772;2022-11-12T02:42:49;103219.47;;;12.66;100.00
55490;BME280;44029;52.956;4.772;2022-11-12T02:45:15;103226.06;;;12.71;100.00
55490;BME280;44029;52.956;4.772;2022-11-12T02:47:40;103237.94;;;12.79;100.00
55490;BME280;44029;52.956;4.772;2022-11-12T02:50:06;103231.78;;;12.76;100.00
55490;BME280;44029;52.956;4.772;2022-11-12T02:52:32;103236.25;;;12.77;100.00
55490;BME280;44029;52.956;4.772;2022-11-12T02:54:59;103237.75;;;12.87;100.00
55490;BME280;44029;52.956;4.772;2022-11-12T02:57:24;103232.47;;;12.85;100.00
55490;BME280;44029;52.956;4.772;2022-11-12T02:59:50;103242.84;;;12.90;100.00
55490;BME280;44029;52.956;4.772;2022-11-12T03:02:15;103251.09;;;12.83;100.00
55490;BME280;44029;52.956;4.772;2022-11-12T03:04:40;103248.31;;;12.83;100.00
55490;BME280;44029;52.956;4.772;2022-11-12T03:07:06;103235.63;;;12.75;100.00
55490;BME280;44029;52.956;4.772;2022-11-12T03:09:32;103231.16;;;12.74;100.00
55490;BME280;44029;52.956;4.772;2022-11-12T03:11:58;103232.00;;;12.75;100.00
55490;BME280;44029;52.956;4.772;2022-11-12T03:14:23;103228.00;;;12.77;100.00
55490;BME280;44029;52.956;4.772;2022-11-12T03:16:48;103231.38;;;12.80;100.00
55490;BME280;44029;52.956;4.772;2022-11-12T03:19:14;103237.94;;;12.79;100.00
55490;BME280;44029;52.956;4.772;2022-11-12T03:21:39;103229.28;;;12.82;100.00
55490;BME280;44029;52.956;4.772;2022-11-12T03:24:05;103214.44;;;12.76;100.00
55490;BME280;44029;52.956;4.772;2022-11-12T03:26:30;103221.63;;;12.70;100.00
55490;BME280;44029;52.956;4.772;2022-11-12T03:28:55;103220.59;;;12.78;100.00
55490;BME280;44029;52.956;4.772;2022-11-12T03:31:21;103226.28;;;12.76;100.00
55490;BME280;44029;52.956;4.772;2022-11-12T03:33:46;103227.56;;;12.81;100.00
55490;BME280;44029;52.956;4.772;2022-11-12T03:36:11;103227.09;;;12.64;100.00
55490;BME280;44029;52.956;4.772;2022-11-12T03:38:37;103225.16;;;12.57;100.00
55490;BME280;44029;52.956;4.772;2022-11-12T03:41:02;103214.56;;;12.54;100.00
55490;BME280;44029;52.956;4.772;2022-11-12T03:43:28;103221.78;;;12.55;100.00
55490;BME280;44029;52.956;4.772;2022-11-12T03:45:53;103222.41;;;12.57;100.00
55490;BME280;44029;52.956;4.772;2022-11-12T03:48:19;103231.84;;;12.42;100.00
55490;BME280;44029;52.956;4.772;2022-11-12T03:50:44;103240.78;;;12.44;100.00
55490;BME280;44029;52.956;4.772;2022-11-12T03:53:09;103238.44;;;12.47;100.00
55490;BME280;44029;52.956;4.772;2022-11-12T03:55:35;103232.94;;;12.47;100.00
55490;BME280;44029;52.956;4.772;2022-11-12T03:58:01;103234.63;;;12.48;100.00
55490;BME280;44029;52.956;4.772;2022-11-12T04:00:27;103225.81;;;12.60;100.00
55490;BME280;44029;52.956;4.772;2022-11-12T04:02:53;103226.00;;;12.51;100.00
55490;BME280;44029;52.956;4.772;2022-11-12T04:05:18;103238.56;;;12.32;100.00
55490;BME280;44029;52.956;4.772;2022-11-12T04:08:08;103241.59;;;12.44;100.00
55490;BME280;44029;52.956;4.772;2022-11-12T04:10:52;103235.28;;;12.50;100.00
55490;BME280;44029;52.956;4.772;2022-11-12T04:13:18;103243.53;;;12.50;100.00
55490;BME280;44029;52.956;4.772;2022-11-12T04:18:37;103243.94;;;12.47;100.00
55490;BME280;44029;52.956;4.772;2022-11-12T04:21:25;103241.41;;;12.52;100.00
55490;BME280;44029;52.956;4.772;2022-11-12T04:24:10;103237.16;;;12.43;100.00
55490;BME280;44029;52.956;4.772;2022-11-12T04:26:56;103242.13;;;12.26;100.00
55490;BME280;44029;52.956;4.772;2022-11-12T04:29:21;103238.75;;;12.24;100.00
55490;BME280;44029;52.956;4.772;2022-11-12T04:32:05;103227.13;;;12.22;100.00
55490;BME280;44029;52.956;4.772;2022-11-12T04:34:30;103230.75;;;12.36;100.00
55490;BME280;44029;52.956;4.772;2022-11-12T04:36:56;103229.03;;;12.28;100.00
55490;BME280;44029;52.956;4.772;2022-11-12T04:39:21;103229.66;;;12.24;100.00
55490;BME280;44029;52.956;4.772;2022-11-12T04:41:46;103226.50;;;12.27;100.00
55490;BME280;44029;52.956;4.772;2022-11-12T04:44:30;103231.53;;;12.16;100.00
55490;BME280;44029;52.956;4.772;2022-11-12T04:47:14;103239.47;;;12.05;100.00
55490;BME280;44029;52.956;4.772;2022-11-12T04:49:40;103240.28;;;11.98;100.00
55490;BME280;44029;52.956;4.772;2022-11-12T04:52:05;103232.47;;;12.02;100.00
55490;BME280;44029;52.956;4.772;2022-11-12T04:54:31;103233.19;;;12.11;100.00
55490;BME280;44029;52.956;4.772;2022-11-12T04:56:56;103238.22;;;12.07;100.00
55490;BME280;44029;52.956;4.772;2022-11-12T04:59:22;103227.38;;;11.99;100.00
55490;BME280;44029;52.956;4.772;2022-11-12T05:01:47;103224.69;;;12.06;100.00
55490;BME280;44029;52.956;4.772;2022-11-12T05:04:12;103226.28;;;11.93;100.00
55490;BME280;44029;52.956;4.772;2022-11-12T05:06:38;103222.94;;;11.98;100.00
55490;BME280;44029;52.956;4.772;2022-11-12T05:09:15;103225.13;;;11.81;100.00
55490;BME280;44029;52.956;4.772;2022-11-12T05:11:40;103237.78;;;11.82;100.00
55490;BME280;44029;52.956;4.772;2022-11-12T05:14:06;103243.94;;;11.84;100.00
55490;BME280;44029;52.956;4.772;2022-11-12T05:16:31;103231.38;;;11.96;100.00
55490;BME280;44029;52.956;4.772;2022-11-12T05:18:56;103221.38;;;11.89;100.00
55490;BME280;44029;52.956;4.772;2022-11-12T05:21:21;103231.00;;;11.78;100.00
55490;BME280;44029;52.956;4.772;2022-11-12T05:24:05;103231.72;;;11.87;100.00
55490;BME280;44029;52.956;4.772;2022-11-12T05:26:31;103231.19;;;11.76;100.00
55490;BME280;44029;52.956;4.772;2022-11-12T05:28:56;103239.38;;;11.91;100.00
55490;BME280;44029;52.956;4.772;2022-11-12T05:31:21;103236.44;;;11.93;100.00
55490;BME280;44029;52.956;4.772;2022-11-12T05:33:47;103242.25;;;11.83;100.00
55490;BME280;44029;52.956;4.772;2022-11-12T05:36:12;103235.25;;;11.80;100.00
55490;BME280;44029;52.956;4.772;2022-11-12T05:38:37;103225.97;;;11.82;100.00
55490;BME280;44029;52.956;4.772;2022-11-12T05:41:03;103233.03;;;11.91;100.00
55490;BME280;44029;52.956;4.772;2022-11-12T05:43:28;103225.13;;;11.81;100.00
55490;BME280;44029;52.956;4.772;2022-11-12T05:45:54;103226.81;;;11.82;100.00
55490;BME280;44029;52.956;4.772;2022-11-12T05:48:19;103223.59;;;11.78;100.00
55490;BME280;44029;52.956;4.772;2022-11-12T05:50:49;103220.53;;;11.88;100.00
55490;BME280;44029;52.956;4.772;2022-11-12T05:53:14;103222.13;;;11.76;100.00
55490;BME280;44029;52.956;4.772;2022-11-12T05:55:39;103237.97;;;11.74;100.00
55490;BME280;44029;52.956;4.772;2022-11-12T05:58:05;103240.50;;;11.75;100.00
55490;BME280;44029;52.956;4.772;2022-11-12T06:00:31;103232.03;;;11.77;100.00
55490;BME280;44029;52.956;4.772;2022-11-12T06:03:03;103230.75;;;11.73;100.00
55490;BME280;44029;52.956;4.772;2022-11-12T06:05:28;103234.09;;;11.68;100.00
55490;BME280;44029;52.956;4.772;2022-11-12T06:07:54;103234.84;;;11.55;100.00
55490;BME280;44029;52.956;4.772;2022-11-12T06:10:19;103246.28;;;11.59;100.00
55490;BME280;44029;52.956;4.772;2022-11-12T06:12:45;103245.41;;;11.58;100.00
55490;BME280;44029;52.956;4.772;2022-11-12T06:15:10;103250.41;;;11.48;100.00
55490;BME280;44029;52.956;4.772;2022-11-12T06:17:35;103243.53;;;11.37;100.00
55490;BME280;44029;52.956;4.772;2022-11-12T06:20:01;103248.69;;;11.47;100.00
55490;BME280;44029;52.956;4.772;2022-11-12T06:22:26;103250.03;;;11.51;100.00
55490;BME280;44029;52.956;4.772;2022-11-12T06:24:51;103253.78;;;11.50;100.00
55490;BME280;44029;52.956;4.772;2022-11-12T06:27:17;103254.31;;;11.39;100.00
55490;BME280;44029;52.956;4.772;2022-11-12T06:29:42;103245.00;;;11.33;100.00
55490;BME280;44029;52.956;4.772;2022-11-12T06:32:07;103241.72;;;11.23;100.00
55490;BME280;44029;52.956;4.772;2022-11-12T06:34:32;103250.22;;;11.28;100.00
55490;BME280;44029;52.956;4.772;2022-11-12T06:36:58;103254.00;;;11.27;100.00
55490;BME280;44029;52.956;4.772;2022-11-12T06:39:23;103254.84;;;11.28;100.00
55490;BME280;44029;52.956;4.772;2022-11-12T06:41:48;103249.81;;;11.31;100.00
55490;BME280;44029;52.956;4.772;2022-11-12T06:44:14;103240.94;;;11.29;100.00
55490;BME280;44029;52.956;4.772;2022-11-12T06:46:39;103245.56;;;11.29;100.00
55490;BME280;44029;52.956;4.772;2022-11-12T06:49:05;103244.44;;;11.23;100.00
55490;BME280;44029;52.956;4.772;2022-11-12T06:51:30;103246.16;;;11.24;100.00
55490;BME280;44029;52.956;4.772;2022-11-12T06:53:55;103250.06;;;11.15;100.00
55490;BME280;44029;52.956;4.772;2022-11-12T06:56:21;103238.72;;;11.18;100.00
55490;BME280;44029;52.956;4.772;2022-11-12T06:58:46;103247.34;;;11.15;100.00
55490;BME280;44029;52.956;4.772;2022-11-12T07:01:14;103248.50;;;11.06;100.00
55490;BME280;44029;52.956;4.772;2022-11-12T07:03:41;103249.00;;;10.94;100.00
55490;BME280;44029;52.956;4.772;2022-11-12T07:06:09;103254.97;;;10.98;100.00
55490;BME280;44029;52.956;4.772;2022-11-12T07:08:36;103255.34;;;10.95;100.00
55490;BME280;44029;52.956;4.772;2022-11-12T07:11:01;103258.25;;;10.93;100.00
55490;BME280;44029;52.956;4.772;2022-11-12T07:13:30;103261.66;;;10.95;100.00
55490;BME280;44029;52.956;4.772;2022-11-12T07:15:57;103259.97;;;10.94;100.00
55490;BME280;44029;52.956;4.772;2022-11-12T07:18:23;103260.38;;;10.76;100.00
55490;BME280;44029;52.956;4.772;2022-11-12T07:20:49;103266.81;;;10.83;100.00
55490;BME280;44029;52.956;4.772;2022-11-12T07:23:14;103261.88;;;10.79;100.00
55490;BME280;44029;52.956;4.772;2022-11-12T07:25:40;103266.63;;;10.85;100.00
55490;BME280;44029;52.956;4.772;2022-11-12T07:28:05;103270.09;;;10.79;100.00
55490;BME280;44029;52.956;4.772;2022-11-12T07:30:30;103271.69;;;10.88;100.00
55490;BME280;44029;52.956;4.772;2022-11-12T07:32:58;103277.69;;;10.77;100.00
55490;BME280;44029;52.956;4.772;2022-11-12T07:35:24;103272.41;;;10.75;100.00
55490;BME280;44029;52.956;4.772;2022-11-12T07:37:49;103280.41;;;10.92;100.00
55490;BME280;44029;52.956;4.772;2022-11-12T07:40:14;103273.03;;;10.92;100.00
55490;BME280;44029;52.956;4.772;2022-11-12T07:42:40;103271.94;;;11.08;100.00
55490;BME280;44029;52.956;4.772;2022-11-12T07:45:05;103283.66;;;11.17;100.00
55490;BME280;44029;52.956;4.772;2022-11-12T07:47:31;103281.56;;;11.19;100.00
55490;BME280;44029;52.956;4.772;2022-11-12T07:49:56;103281.38;;;11.20;100.00
55490;BME280;44029;52.956;4.772;2022-11-12T07:52:21;103285.84;;;11.07;100.00
55490;BME280;44029;52.956;4.772;2022-11-12T07:54:47;103286.94;;;10.91;100.00
55490;BME280;44029;52.956;4.772;2022-11-12T07:57:12;103291.03;;;10.80;100.00
55490;BME280;44029;52.956;4.772;2022-11-12T07:59:38;103289.06;;;10.59;100.00
55490;BME280;44029;52.956;4.772;2022-11-12T08:02:03;103295.50;;;10.51;100.00
55490;BME280;44029;52.956;4.772;2022-11-12T08:04:28;103297.19;;;10.52;100.00
55490;BME280;44029;52.956;4.772;2022-11-12T08:06:54;103294.34;;;10.60;100.00
55490;BME280;44029;52.956;4.772;2022-11-12T08:09:19;103301.16;;;10.50;100.00
55490;BME280;44029;52.956;4.772;2022-11-12T08:11:44;103303.03;;;10.49;100.00
55490;BME280;44029;52.956;4.772;2022-11-12T08:14:09;103312.22;;;10.56;100.00
55490;BME280;44029;52.956;4.772;2022-11-12T08:16:35;103316.66;;;10.42;100.00
55490;BME280;44029;52.956;4.772;2022-11-12T08:19:00;103311.91;;;10.36;100.00
55490;BME280;44029;52.956;4.772;2022-11-12T08:21:26;103308.66;;;10.18;100.00
55490;BME280;44029;52.956;4.772;2022-11-12T08:23:51;103314.69;;;10.13;100.00
55490;BME280;44029;52.956;4.772;2022-11-12T08:26:19;103318.47;;;10.27;100.00
55490;BME280;44029;52.956;4.772;2022-11-12T08:28:44;103317.31;;;10.06;100.00
55490;BME280;44029;52.956;4.772;2022-11-12T08:31:19;103329.91;;;10.16;100.00
55490;BME280;44029;52.956;4.772;2022-11-12T08:33:45;103333.41;;;10.10;100.00
55490;BME280;44029;52.956;4.772;2022-11-12T08:36:13;103330.13;;;10.14;100.00
55490;BME280;44029;52.956;4.772;2022-11-12T08:38:39;103332.25;;;10.04;100.00
55490;BME280;44029;52.956;4.772;2022-11-12T08:41:06;103330.69;;;10.24;100.00
55490;BME280;44029;52.956;4.772;2022-11-12T08:43:32;103325.97;;;10.18;100.00
55490;BME280;44029;52.956;4.772;2022-11-12T08:45:58;103324.34;;;10.24;100.00
55490;BME280;44029;52.956;4.772;2022-11-12T08:48:25;103327.78;;;10.03;100.00
55490;BME280;44029;52.956;4.772;2022-11-12T08:50:51;103323.13;;;10.26;100.00
55490;BME280;44029;52.956;4.772;2022-11-12T08:53:16;103309.94;;;10.45;100.00
55490;BME280;44029;52.956;4.772;2022-11-12T08:55:41;103307.13;;;10.38;100.00
55490;BME280;44029;52.956;4.772;2022-11-12T08:58:07;103306.78;;;10.18;100.00
55490;BME280;44029;52.956;4.772;2022-11-12T09:00:37;103309.53;;;10.18;100.00
55490;BME280;44029;52.956;4.772;2022-11-12T09:03:04;103314.41;;;10.08;100.00
55490;BME280;44029;52.956;4.772;2022-11-12T09:05:31;103305.66;;;10.13;100.00
55490;BME280;44029;52.956;4.772;2022-11-12T09:08:07;103314.03;;;10.11;100.00
55490;BME280;44029;52.956;4.772;2022-11-12T09:10:37;103299.03;;;10.22;100.00
55490;BME280;44029;52.956;4.772;2022-11-12T09:13:03;103300.81;;;10.00;100.00
55490;BME280;44029;52.956;4.772;2022-11-12T09:15:29;103297.97;;;10.08;100.00
55490;BME280;44029;52.956;4.772;2022-11-12T09:17:55;103304.88;;;10.04;100.00
55490;BME280;44029;52.956;4.772;2022-11-12T09:20:22;103301.50;;;9.79;100.00
55490;BME280;44029;52.956;4.772;2022-11-12T09:22:47;103296.28;;;9.69;100.00
55490;BME280;44029;52.956;4.772;2022-11-12T09:25:12;103303.38;;;9.78;100.00
55490;BME280;44029;52.956;4.772;2022-11-12T09:27:38;103300.59;;;9.86;100.00
55490;BME280;44029;52.956;4.772;2022-11-12T09:30:04;103299.09;;;9.99;100.00
55490;BME280;44029;52.956;4.772;2022-11-12T09:32:30;103297.41;;;9.98;100.00
55490;BME280;44029;52.956;4.772;2022-11-12T09:34:56;103310.22;;;9.97;100.00
55490;BME280;44029;52.956;4.772;2022-11-12T09:37:21;103317.59;;;9.97;100.00
55490;BME280;44029;52.956;4.772;2022-11-12T09:39:46;103315.59;;;9.91;100.00
55490;BME280;44029;52.956;4.772;2022-11-12T09:42:15;103314.47;;;9.85;100.00
55490;BME280;44029;52.956;4.772;2022-11-12T09:44:45;103316.59;;;9.75;100.00
55490;BME280;44029;52.956;4.772;2022-11-12T09:47:19;103304.09;;;9.57;100.00
55490;BME280;44029;52.956;4.772;2022-11-12T09:52:23;103306.31;;;9.77;100.00
55490;BME280;44029;52.956;4.772;2022-11-12T09:55:01;103306.25;;;9.62;100.00
55490;BME280;44029;52.956;4.772;2022-11-12T09:57:30;103310.09;;;9.76;100.00
55490;BME280;44029;52.956;4.772;2022-11-12T09:59:56;103310.31;;;9.66;100.00
55490;BME280;44029;52.956;4.772;2022-11-12T10:02:38;103312.09;;;9.82;100.00
55490;BME280;44029;52.956;4.772;2022-11-12T10:10:46;103316.59;;;10.13;100.00
55490;BME280;44029;52.956;4.772;2022-11-12T10:18:48;103300.13;;;9.98;100.00
55490;BME280;44029;52.956;4.772;2022-11-12T10:23:51;103297.28;;;9.91;100.00
55490;BME280;44029;52.956;4.772;2022-11-12T10:26:19;103301.34;;;9.95;100.00
55490;BME280;44029;52.956;4.772;2022-11-12T10:31:18;103293.75;;;10.20;100.00
55490;BME280;44029;52.956;4.772;2022-11-12T10:33:44;103295.16;;;10.16;100.00
55490;BME280;44029;52.956;4.772;2022-11-12T10:36:26;103286.53;;;10.04;100.00
55490;BME280;44029;52.956;4.772;2022-11-12T10:38:54;103285.25;;;10.30;100.00
55490;BME280;44029;52.956;4.772;2022-11-12T10:44:00;103293.97;;;10.34;100.00
55490;BME280;44029;52.956;4.772;2022-11-12T10:46:31;103290.84;;;10.67;100.00
55490;BME280;44029;52.956;4.772;2022-11-12T10:49:02;103295.16;;;10.91;100.00
55490;BME280;44029;52.956;4.772;2022-11-12T10:51:33;103285.47;;;11.10;100.00
55490;BME280;44029;52.956;4.772;2022-11-12T10:56:51;103279.06;;;11.02;100.00
55490;BME280;44029;52.956;4.772;2022-11-12T10:59:27;103277.19;;;11.25;100.00
55490;BME280;44029;52.956;4.772;2022-11-12T11:01:58;103273.72;;;11.16;100.00
55490;BME280;44029;52.956;4.772;2022-11-12T11:04:33;103268.16;;;11.09;100.00
55490;BME280;44029;52.956;4.772;2022-11-12T11:07:03;103274.16;;;11.19;100.00
55490;BME280;44029;52.956;4.772;2022-11-12T11:09:31;103266.03;;;11.26;100.00
55490;BME280;44029;52.956;4.772;2022-11-12T11:11:56;103269.97;;;11.02;100.00
55490;BME280;44029;52.956;4.772;2022-11-12T11:16:56;103267.97;;;11.32;100.00
55490;BME280;44029;52.956;4.772;2022-11-12T11:19:32;103264.69;;;11.44;100.00
55490;BME280;44029;52.956;4.772;2022-11-12T11:25:18;103265.13;;;11.40;100.00
55490;BME280;44029;52.956;4.772;2022-11-12T11:30:29;103265.69;;;11.79;100.00
55490;BME280;44029;52.956;4.772;2022-11-12T11:35:56;103262.03;;;11.72;100.00
55490;BME280;44029;52.956;4.772;2022-11-12T11:41:13;103257.47;;;11.86;100.00
55490;BME280;44029;52.956;4.772;2022-11-12T11:44:00;103254.63;;;11.72;100.00
55490;BME280;44029;52.956;4.772;2022-11-12T11:52:20;103258.66;;;11.76;100.00
55490;BME280;44029;52.956;4.772;2022-11-12T11:57:25;103265.19;;;11.97;100.00
55490;BME280;44029;52.956;4.772;2022-11-12T12:08:35;103258.84;;;11.75;100.00
55490;BME280;44029;52.956;4.772;2022-11-12T12:22:47;103258.28;;;11.79;100.00
55490;BME280;44029;52.956;4.772;2022-11-12T12:25:21;103253.38;;;11.75;100.00
55490;BME280;44029;52.956;4.772;2022-11-12T12:27:52;103240.72;;;11.80;100.00
55490;BME280;44029;52.956;4.772;2022-11-12T12:30:22;103239.69;;;11.82;100.00
55490;BME280;44029;52.956;4.772;2022-11-12T12:33:13;103227.25;;;11.86;100.00
55490;BME280;44029;52.956;4.772;2022-11-12T12:35:51;103225.16;;;11.88;100.00
55490;BME280;44029;52.956;4.772;2022-11-12T12:38:36;103219.09;;;11.92;100.00
55490;BME280;44029;52.956;4.772;2022-11-12T12:41:23;103216.38;;;11.92;100.00
55490;BME280;44029;52.956;4.772;2022-11-12T12:43:55;103212.28;;;11.88;100.00
55490;BME280;44029;52.956;4.772;2022-11-12T12:46:25;103203.75;;;11.76;100.00
55490;BME280;44029;52.956;4.772;2022-11-12T12:48:52;103208.97;;;11.71;100.00
55490;BME280;44029;52.956;4.772;2022-11-12T12:51:20;103205.91;;;11.81;100.00
55490;BME280;44029;52.956;4.772;2022-11-12T12:53:46;103206.13;;;11.86;100.00
55490;BME280;44029;52.956;4.772;2022-11-12T12:58:42;103201.97;;;11.90;100.00
55490;BME280;44029;52.956;4.772;2022-11-12T13:04:06;103196.13;;;12.00;100.00
55490;BME280;44029;52.956;4.772;2022-11-12T13:06:54;103189.59;;;12.08;100.00
55490;BME280;44029;52.956;4.772;2022-11-12T13:09:23;103194.25;;;12.07;100.00
55490;BME280;44029;52.956;4.772;2022-11-12T13:11:52;103193.63;;;12.05;100.00
55490;BME280;44029;52.956;4.772;2022-11-12T13:17:07;103192.72;;;11.98;100.00
55490;BME280;44029;52.956;4.772;2022-11-12T13:32:57;103180.91;;;11.97;100.00
55490;BME280;44029;52.956;4.772;2022-11-12T13:35:27;103181.31;;;12.01;100.00
55490;BME280;44029;52.956;4.772;2022-11-12T13:45:49;103181.94;;;11.96;100.00
55490;BME280;44029;52.956;4.772;2022-11-12T13:48:38;103183.28;;;12.07;100.00
55490;BME280;44029;52.956;4.772;2022-11-12T13:51:55;103181.41;;;12.14;100.00
55490;BME280;44029;52.956;4.772;2022-11-12T13:53:55;103176.50;;;12.03;100.00
55490;BME280;44029;52.956;4.772;2022-11-12T13:58:52;103175.72;;;11.88;100.00
55490;BME280;44029;52.956;4.772;2022-11-12T14:01:20;103163.59;;;12.04;100.00
55490;BME280;44029;52.956;4.772;2022-11-12T14:03:49;103164.44;;;12.04;100.00
55490;BME280;44029;52.956;4.772;2022-11-12T14:06:36;103158.84;;;12.26;100.00
55490;BME280;44029;52.956;4.772;2022-11-12T14:09:34;103150.16;;;12.22;100.00
55490;BME280;44029;52.956;4.772;2022-11-12T14:12:17;103135.59;;;12.22;100.00
55490;BME280;44029;52.956;4.772;2022-11-12T14:20:07;103133.84;;;12.14;100.00
55490;BME280;44029;52.956;4.772;2022-11-12T14:22:42;103142.13;;;12.21;100.00
55490;BME280;44029;52.956;4.772;2022-11-12T14:25:15;103144.91;;;12.27;100.00
55490;BME280;44029;52.956;4.772;2022-11-12T14:27:42;103135.78;;;12.27;100.00
55490;BME280;44029;52.956;4.772;2022-11-12T14:30:26;103123.56;;;12.36;100.00
55490;BME280;44029;52.956;4.772;2022-11-12T14:33:07;103117.03;;;12.37;100.00